sensor_id;sensor_type;location;lat;lon;timestamp;pressure;altitude;pressure_sealevel;temperature;humidity
15294;BME280;7748;52.474;13.454;2023-03-20T00:02:02;101132.63;;;12.12;100.00
15294;BME280;7748;52.474;13.454;2023-03-20T00:04:31;101133.41;;;12.10;100.00
15294;BME280;7748;52.474;13.454;2023-03-20T00:06:59;101136.88;;;12.10;100.00
15294;BME280;7748;52.474;13.454;2023-03-20T00:09:27;101133.41;;;12.10;100.00
15294;BME280;7748;52.474;13.454;2023-03-20T00:11:56;101136.78;;;12.07;100.00
15294;BME280;7748;52.474;13.454;2023-03-20T00:14:25;101142.56;;;11.98;100.00
15294;BME280;7748;52.474;13.454;2023-03-20T00:16:54;101139.72;;;11.92;100.00
15294;BME280;7748;52.474;13.454;2023-03-20T00:19:24;101140.56;;;11.91;100.00
15294;BME280;7748;52.474;13.454;2023-03-20T00:21:55;101141.97;;;11.83;100.00
15294;BME280;7748;52.474;13.454;2023-03-20T00:24:24;101139.34;;;11.82;100.00
15294;BME280;7748;52.474;13.454;2023-03-20T00:26:52;101135.81;;;11.81;100.00
15294;BME280;7748;52.474;13.454;2023-03-20T00:29:22;101133.03;;;11.75;100.00
15294;BME280;7748;52.474;13.454;2023-03-20T00:31:54;101139.97;;;11.76;100.00
15294;BME280;7748;52.474;13.454;2023-03-20T00:34:23;101136.25;;;11.69;100.00
15294;BME280;7748;52.474;13.454;2023-03-20T00:36:52;101131.84;;;11.67;100.00
15294;BME280;7748;52.474;13.454;2023-03-20T00:39:22;101129.22;;;11.65;100.00
15294;BME280;7748;52.474;13.454;2023-03-20T00:41:53;101129.25;;;11.67;100.00
15294;BME280;7748;52.474;13.454;2023-03-20T00:44:24;101123.88;;;11.38;100.00
15294;BME280;7748;52.474;13.454;2023-03-20T00:46:57;101118.56;;;11.35;100.00
15294;BME280;7748;52.474;13.454;2023-03-20T00:49:27;101112.28;;;11.30;100.00
15294;BME280;7748;52.474;13.454;2023-03-20T00:51:56;101118.84;;;11.20;100.00
15294;BME280;7748;52.474;13.454;2023-03-20T00:54:24;101118.66;;;11.14;100.00
15294;BME280;7748;52.474;13.454;2023-03-20T00:56:56;101120.06;;;11.06;100.00
15294;BME280;7748;52.474;13.454;2023-03-20T00:59:27;101119.28;;;11.08;100.00
15294;BME280;7748;52.474;13.454;2023-03-20T01:02:00;101113.13;;;11.06;100.00
15294;BME280;7748;52.474;13.454;2023-03-20T01:04:33;101121.41;;;10.96;100.00
15294;BME280;7748;52.474;13.454;2023-03-20T01:07:05;101117.75;;;10.91;100.00
15294;BME280;7748;52.474;13.454;2023-03-20T01:09:33;101123.66;;;10.87;100.00
15294;BME280;7748;52.474;13.454;2023-03-20T01:12:02;101116.69;;;10.86;100.00
15294;BME280;7748;52.474;13.454;2023-03-20T01:14:30;101120.97;;;10.84;100.00
15294;BME280;7748;52.474;13.454;2023-03-20T01:17:00;101121.16;;;10.90;100.00
15294;BME280;7748;52.474;13.454;2023-03-20T01:19:31;101119.41;;;10.89;100.00
15294;BME280;7748;52.474;13.454;2023-03-20T01:21:58;101109.03;;;10.89;100.00
15294;BME280;7748;52.474;13.454;2023-03-20T01:24:28;101115.03;;;10.88;100.00
15294;BME280;7748;52.474;13.454;2023-03-20T01:26:55;101116.84;;;10.90;100.00
15294;BME280;7748;52.474;13.454;2023-03-20T01:29:25;101116.34;;;10.99;100.00
15294;BME280;7748;52.474;13.454;2023-03-20T01:31:53;101117.00;;;10.93;100.00
15294;BME280;7748;52.474;13.454;2023-03-20T01:34:23;101123.19;;;10.97;100.00
15294;BME280;7748;52.474;13.454;2023-03-20T01:36:52;101118.75;;;10.94;100.00
15294;BME280;7748;52.474;13.454;2023-03-20T01:39:22;101121.53;;;10.99;100.00
15294;BME280;7748;52.474;13.454;2023-03-20T01:41:55;101118.13;;;11.00;100.00
15294;BME280;7748;52.474;13.454;2023-03-20T01:44:27;101114.56;;;10.98;100.00
15294;BME280;7748;52.474;13.454;2023-03-20T01:46:55;101117.22;;;11.00;100.00
15294;BME280;7748;52.474;13.454;2023-03-20T01:52:32;101112.84;;;10.99;100.00
15294;BME280;7748;52.474;13.454;2023-03-20T01:55:00;101121.53;;;10.99;100.00
15294;BME280;7748;52.474;13.454;2023-03-20T01:57:29;101113.47;;;10.93;100.00
15294;BME280;7748;52.474;13.454;2023-03-20T02:00:00;101106.47;;;10.90;100.00
15294;BME280;7748;52.474;13.454;2023-03-20T02:02:30;101105.69;;;10.93;100.00
15294;BME280;7748;52.474;13.454;2023-03-20T02:05:02;101111.66;;;10.90;100.00
15294;BME280;7748;52.474;13.454;2023-03-20T02:07:33;101107.00;;;11.04;100.00
15294;BME280;7748;52.474;13.454;2023-03-20T02:10:02;101119.41;;;10.89;100.00
15294;BME280;7748;52.474;13.454;2023-03-20T02:12:31;101126.47;;;10.93;100.00
15294;BME280;7748;52.474;13.454;2023-03-20T02:15:00;101126.47;;;10.93;100.00
15294;BME280;7748;52.474;13.454;2023-03-20T02:17:28;101133.72;;;11.00;100.00
15294;BME280;7748;52.474;13.454;2023-03-20T02:20:03;101132.19;;;11.05;100.00
15294;BME280;7748;52.474;13.454;2023-03-20T02:40:32;101123.31;;;11.00;100.00
15294;BME280;7748;52.474;13.454;2023-03-20T02:43:12;101113.97;;;11.05;100.00
15294;BME280;7748;52.474;13.454;2023-03-20T02:45:48;101111.47;;;10.86;100.00
15294;BME280;7748;52.474;13.454;2023-03-20T02:48:26;101112.78;;;10.97;100.00
15294;BME280;7748;52.474;13.454;2023-03-20T02:51:02;101116.22;;;10.96;100.00
15294;BME280;7748;52.474;13.454;2023-03-20T02:53:39;101123.25;;;10.99;100.00
15294;BME280;7748;52.474;13.454;2023-03-20T02:56:14;101121.63;;;11.02;100.00
15294;BME280;7748;52.474;13.454;2023-03-20T02:58:48;101125.16;;;11.03;100.00
15294;BME280;7748;52.474;13.454;2023-03-20T03:01:21;101128.75;;;11.06;100.00
15294;BME280;7748;52.474;13.454;2023-03-20T03:03:54;101119.88;;;11.01;100.00
15294;BME280;7748;52.474;13.454;2023-03-20T03:06:26;101126.22;;;11.08;100.00
15294;BME280;7748;52.474;13.454;2023-03-20T03:09:00;101116.34;;;10.99;100.00
15294;BME280;7748;52.474;13.454;2023-03-20T03:11:31;101114.09;;;11.08;100.00
15294;BME280;7748;52.474;13.454;2023-03-20T03:14:01;101123.00;;;11.15;100.00
15294;BME280;7748;52.474;13.454;2023-03-20T03:16:32;101122.00;;;11.11;100.00
15294;BME280;7748;52.474;13.454;2023-03-20T03:19:06;101123.72;;;11.11;100.00
15294;BME280;7748;52.474;13.454;2023-03-20T03:21:36;101121.13;;;11.11;100.00
15294;BME280;7748;52.474;13.454;2023-03-20T03:24:20;101119.38;;;11.11;100.00
15294;BME280;7748;52.474;13.454;2023-03-20T03:27:12;101120.22;;;11.10;100.00
15294;BME280;7748;52.474;13.454;2023-03-20T03:29:46;101123.69;;;11.09;100.00
15294;BME280;7748;52.474;13.454;2023-03-20T03:32:23;101132.09;;;11.26;100.00
15294;BME280;7748;52.474;13.454;2023-03-20T03:34:52;101129.69;;;11.08;100.00
15294;BME280;7748;52.474;13.454;2023-03-20T03:37:28;101129.97;;;11.16;100.00
15294;BME280;7748;52.474;13.454;2023-03-20T03:40:08;101126.66;;;11.20;100.00
15294;BME280;7748;52.474;13.454;2023-03-20T03:42:41;101130.88;;;11.16;100.00
15294;BME280;7748;52.474;13.454;2023-03-20T03:45:15;101130.91;;;11.18;100.00
15294;BME280;7748;52.474;13.454;2023-03-20T03:47:51;101133.41;;;11.15;100.00
15294;BME280;7748;52.474;13.454;2023-03-20T03:50:23;101136.78;;;11.12;100.00
15294;BME280;7748;52.474;13.454;2023-03-20T03:52:54;101135.38;;;10.98;100.00
15294;BME280;7748;52.474;13.454;2023-03-20T03:55:28;101137.03;;;10.96;100.00
15294;BME280;7748;52.474;13.454;2023-03-20T03:58:03;101138.56;;;10.91;100.00
15294;BME280;7748;52.474;13.454;2023-03-20T04:00:33;101143.63;;;10.88;100.00
15294;BME280;7748;52.474;13.454;2023-03-20T04:03:04;101137.78;;;10.93;100.00
15294;BME280;7748;52.474;13.454;2023-03-20T04:05:41;101130.81;;;10.92;100.00
15294;BME280;7748;52.474;13.454;2023-03-20T04:08:10;101130.94;;;10.95;100.00
15294;BME280;7748;52.474;13.454;2023-03-20T04:10:40;101135.31;;;10.97;100.00
15294;BME280;7748;52.474;13.454;2023-03-20T04:13:08;101137.03;;;10.96;100.00
15294;BME280;7748;52.474;13.454;2023-03-20T04:15:37;101142.22;;;10.96;100.00
15294;BME280;7748;52.474;13.454;2023-03-20T04:18:05;101141.19;;;10.92;100.00
15294;BME280;7748;52.474;13.454;2023-03-20T04:20:33;101145.63;;;10.95;100.00
15294;BME280;7748;52.474;13.454;2023-03-20T04:23:01;101155.06;;;10.93;100.00
15294;BME280;7748;52.474;13.454;2023-03-20T04:25:31;101155.25;;;10.98;100.00
15294;BME280;7748;52.474;13.454;2023-03-20T04:28:00;101155.38;;;10.78;100.00
15294;BME280;7748;52.474;13.454;2023-03-20T04:30:29;101161.00;;;10.89;100.00
15294;BME280;7748;52.474;13.454;2023-03-20T04:32:56;101162.66;;;10.87;100.00
15294;BME280;7748;52.474;13.454;2023-03-20T04:35:24;101160.63;;;10.80;100.00
15294;BME280;7748;52.474;13.454;2023-03-20T04:37:52;101163.69;;;10.69;100.00
15294;BME280;7748;52.474;13.454;2023-03-20T04:40:20;101174.06;;;10.69;100.00
15294;BME280;7748;52.474;13.454;2023-03-20T04:42:48;101160.06;;;10.87;100.00
15294;BME280;7748;52.474;13.454;2023-03-20T04:45:17;101163.25;;;10.80;100.00
15294;BME280;7748;52.474;13.454;2023-03-20T04:47:45;101164.31;;;10.85;100.00
15294;BME280;7748;52.474;13.454;2023-03-20T04:50:13;101165.00;;;10.81;100.00
15294;BME280;7748;52.474;13.454;2023-03-20T04:52:42;101154.75;;;10.84;100.00
15294;BME280;7748;52.474;13.454;2023-03-20T04:55:10;101166.91;;;10.85;100.00
15294;BME280;7748;52.474;13.454;2023-03-20T04:57:38;101165.16;;;10.84;100.00
15294;BME280;7748;52.474;13.454;2023-03-20T05:00:07;101167.97;;;10.90;100.00
15294;BME280;7748;52.474;13.454;2023-03-20T05:02:37;101165.47;;;10.93;100.00
15294;BME280;7748;52.474;13.454;2023-03-20T05:05:05;101165.88;;;10.81;100.00
15294;BME280;7748;52.474;13.454;2023-03-20T05:07:34;101166.06;;;10.86;100.00
15294;BME280;7748;52.474;13.454;2023-03-20T05:10:02;101173.06;;;10.66;100.00
15294;BME280;7748;52.474;13.454;2023-03-20T05:12:31;101168.00;;;10.69;100.00
15294;BME280;7748;52.474;13.454;2023-03-20T05:14:59;101167.13;;;10.68;100.00
15294;BME280;7748;52.474;13.454;2023-03-20T05:17:26;101173.06;;;10.87;100.00
15294;BME280;7748;52.474;13.454;2023-03-20T05:19:56;101165.06;;;10.82;100.00
15294;BME280;7748;52.474;13.454;2023-03-20T05:22:28;101170.44;;;10.87;100.00
15294;BME280;7748;52.474;13.454;2023-03-20T05:24:56;101162.19;;;10.97;100.00
15294;BME280;7748;52.474;13.454;2023-03-20T05:27:24;101165.66;;;10.98;100.00
15294;BME280;7748;52.474;13.454;2023-03-20T05:29:52;101161.38;;;10.98;100.00
15294;BME280;7748;52.474;13.454;2023-03-20T05:32:21;101171.00;;;11.01;100.00
15294;BME280;7748;52.474;13.454;2023-03-20T05:34:49;101174.59;;;11.04;100.00
15294;BME280;7748;52.474;13.454;2023-03-20T05:37:18;101178.63;;;10.96;100.00
15294;BME280;7748;52.474;13.454;2023-03-20T05:39:46;101175.31;;;11.00;100.00
15294;BME280;7748;52.474;13.454;2023-03-20T05:42:14;101170.81;;;10.96;100.00
15294;BME280;7748;52.474;13.454;2023-03-20T05:44:42;101171.63;;;10.95;100.00
15294;BME280;7748;52.474;13.454;2023-03-20T05:47:10;101170.31;;;11.05;100.00
15294;BME280;7748;52.474;13.454;2023-03-20T05:49:38;101168.41;;;11.01;100.00
15294;BME280;7748;52.474;13.454;2023-03-20T05:52:08;101165.84;;;11.02;100.00
15294;BME280;7748;52.474;13.454;2023-03-20T05:54:38;101172.25;;;11.10;100.00
15294;BME280;7748;52.474;13.454;2023-03-20T05:57:06;101173.00;;;11.08;100.00
15294;BME280;7748;52.474;13.454;2023-03-20T05:59:34;101170.78;;;11.17;100.00
15294;BME280;7748;52.474;13.454;2023-03-20T06:02:03;101174.34;;;11.21;100.00
15294;BME280;7748;52.474;13.454;2023-03-20T06:04:30;101175.03;;;11.15;100.00
15294;BME280;7748;52.474;13.454;2023-03-20T06:07:03;101177.81;;;11.20;100.00
15294;BME280;7748;52.474;13.454;2023-03-20T06:09:34;101183.06;;;11.21;100.00
15294;BME280;7748;52.474;13.454;2023-03-20T06:12:04;101186.66;;;11.25;100.00
15294;BME280;7748;52.474;13.454;2023-03-20T06:14:32;101185.59;;;11.20;100.00
15294;BME280;7748;52.474;13.454;2023-03-20T06:17:00;101187.69;;;11.28;100.00
15294;BME280;7748;52.474;13.454;2023-03-20T06:19:28;101197.25;;;11.29;100.00
15294;BME280;7748;52.474;13.454;2023-03-20T06:21:58;101204.06;;;11.26;100.00
15294;BME280;7748;52.474;13.454;2023-03-20T06:24:30;101209.09;;;11.21;100.00
15294;BME280;7748;52.474;13.454;2023-03-20T06:26:58;101208.84;;;11.37;100.00
15294;BME280;7748;52.474;13.454;2023-03-20T06:29:30;101214.94;;;11.38;100.00
15294;BME280;7748;52.474;13.454;2023-03-20T06:32:00;101211.03;;;11.27;100.00
15294;BME280;7748;52.474;13.454;2023-03-20T06:34:30;101221.06;;;11.18;100.00
15294;BME280;7748;52.474;13.454;2023-03-20T06:36:58;101228.50;;;11.08;100.00
15294;BME280;7748;52.474;13.454;2023-03-20T06:39:26;101231.00;;;11.05;100.00
15294;BME280;7748;52.474;13.454;2023-03-20T06:41:54;101230.84;;;11.02;100.00
15294;BME280;7748;52.474;13.454;2023-03-20T06:44:23;101232.34;;;10.95;100.00
15294;BME280;7748;52.474;13.454;2023-03-20T06:46:53;101231.97;;;10.86;100.00
15294;BME280;7748;52.474;13.454;2023-03-20T06:49:22;101241.81;;;10.74;100.00
15294;BME280;7748;52.474;13.454;2023-03-20T06:51:51;101239.22;;;10.53;100.00
15294;BME280;7748;52.474;13.454;2023-03-20T06:54:19;58734.78;;;-145.20;100.00
15294;BME280;7748;52.474;13.454;2023-03-20T06:56:47;58734.78;;;-145.20;100.00
15294;BME280;7748;52.474;13.454;2023-03-20T06:59:15;58734.78;;;-145.20;100.00
15294;BME280;7748;52.474;13.454;2023-03-20T07:01:44;58734.78;;;-145.20;100.00
15294;BME280;7748;52.474;13.454;2023-03-20T07:04:13;58734.78;;;-145.20;100.00
15294;BME280;7748;52.474;13.454;2023-03-20T07:06:42;58734.78;;;-145.20;100.00
15294;BME280;7748;52.474;13.454;2023-03-20T07:09:14;58734.78;;;-145.20;100.00
15294;BME280;7748;52.474;13.454;2023-03-20T07:11:43;58734.78;;;-145.20;100.00
15294;BME280;7748;52.474;13.454;2023-03-20T07:14:12;58734.78;;;-145.20;100.00
15294;BME280;7748;52.474;13.454;2023-03-20T07:16:40;58734.78;;;-145.20;100.00
15294;BME280;7748;52.474;13.454;2023-03-20T07:19:09;58734.78;;;-145.20;100.00
15294;BME280;7748;52.474;13.454;2023-03-20T07:21:43;58734.78;;;-145.20;100.00
15294;BME280;7748;52.474;13.454;2023-03-20T07:24:11;58734.78;;;-145.20;100.00
15294;BME280;7748;52.474;13.454;2023-03-20T07:26:40;58734.78;;;-145.20;100.00
15294;BME280;7748;52.474;13.454;2023-03-20T07:29:08;58734.78;;;-145.20;100.00
15294;BME280;7748;52.474;13.454;2023-03-20T07:31:36;58734.78;;;-145.20;100.00
15294;BME280;7748;52.474;13.454;2023-03-20T07:34:04;58734.78;;;-145.20;100.00
15294;BME280;7748;52.474;13.454;2023-03-20T07:36:32;58734.78;;;-145.20;100.00
15294;BME280;7748;52.474;13.454;2023-03-20T07:39:01;58734.78;;;-145.20;100.00
15294;BME280;7748;52.474;13.454;2023-03-20T07:41:29;58734.78;;;-145.20;100.00
15294;BME280;7748;52.474;13.454;2023-03-20T07:43:58;58734.78;;;-145.20;100.00
15294;BME280;7748;52.474;13.454;2023-03-20T07:46:25;58734.78;;;-145.20;100.00
15294;BME280;7748;52.474;13.454;2023-03-20T07:48:54;58734.78;;;-145.20;100.00
15294;BME280;7748;52.474;13.454;2023-03-20T07:51:23;58734.78;;;-145.20;100.00
15294;BME280;7748;52.474;13.454;2023-03-20T07:53:51;58734.78;;;-145.20;100.00
15294;BME280;7748;52.474;13.454;2023-03-20T07:56:21;58734.78;;;-145.20;100.00
15294;BME280;7748;52.474;13.454;2023-03-20T07:58:49;58734.78;;;-145.20;100.00
15294;BME280;7748;52.474;13.454;2023-03-20T08:01:20;58734.78;;;-145.20;100.00
15294;BME280;7748;52.474;13.454;2023-03-20T08:03:48;58734.78;;;-145.20;100.00
15294;BME280;7748;52.474;13.454;2023-03-20T08:06:17;58734.78;;;-145.20;100.00
15294;BME280;7748;52.474;13.454;2023-03-20T08:08:45;58734.78;;;-145.20;100.00
15294;BME280;7748;52.474;13.454;2023-03-20T08:11:15;58734.78;;;-145.20;100.00
15294;BME280;7748;52.474;13.454;2023-03-20T08:13:47;58734.78;;;-145.20;100.00
15294;BME280;7748;52.474;13.454;2023-03-20T08:16:15;58734.78;;;-145.20;100.00
15294;BME280;7748;52.474;13.454;2023-03-20T08:18:43;58734.78;;;-145.20;100.00
15294;BME280;7748;52.474;13.454;2023-03-20T08:21:11;58734.78;;;-145.20;100.00
15294;BME280;7748;52.474;13.454;2023-03-20T08:23:39;58734.78;;;-145.20;100.00
15294;BME280;7748;52.474;13.454;2023-03-20T08:26:07;58734.78;;;-145.20;100.00
15294;BME280;7748;52.474;13.454;2023-03-20T08:28:36;58734.78;;;-145.20;100.00
15294;BME280;7748;52.474;13.454;2023-03-20T08:31:15;58734.78;;;-145.20;100.00
15294;BME280;7748;52.474;13.454;2023-03-20T08:33:45;58734.78;;;-145.20;100.00
15294;BME280;7748;52.474;13.454;2023-03-20T08:36:13;58734.78;;;-145.20;100.00
15294;BME280;7748;52.474;13.454;2023-03-20T08:38:42;58734.78;;;-145.20;100.00
15294;BME280;7748;52.474;13.454;2023-03-20T08:41:10;58734.78;;;-145.20;100.00
15294;BME280;7748;52.474;13.454;2023-03-20T08:43:39;58734.78;;;-145.20;100.00
15294;BME280;7748;52.474;13.454;2023-03-20T08:46:08;58734.78;;;-145.20;100.00
15294;BME280;7748;52.474;13.454;2023-03-20T08:48:38;58734.78;;;-145.20;100.00
15294;BME280;7748;52.474;13.454;2023-03-20T08:51:06;58734.78;;;-145.20;100.00
15294;BME280;7748;52.474;13.454;2023-03-20T08:53:35;58734.78;;;-145.20;100.00
15294;BME280;7748;52.474;13.454;2023-03-20T08:56:04;58734.78;;;-145.20;100.00
15294;BME280;7748;52.474;13.454;2023-03-20T08:58:32;58734.78;;;-145.20;100.00
15294;BME280;7748;52.474;13.454;2023-03-20T09:01:03;58734.78;;;-145.20;100.00
15294;BME280;7748;52.474;13.454;2023-03-20T09:03:31;58734.78;;;-145.20;100.00
15294;BME280;7748;52.474;13.454;2023-03-20T09:06:04;58734.78;;;-145.20;100.00
15294;BME280;7748;52.474;13.454;2023-03-20T09:08:33;58734.78;;;-145.20;100.00
15294;BME280;7748;52.474;13.454;2023-03-20T09:11:01;58734.78;;;-145.20;100.00
15294;BME280;7748;52.474;13.454;2023-03-20T09:13:30;58734.78;;;-145.20;100.00
15294;BME280;7748;52.474;13.454;2023-03-20T09:15:58;58734.78;;;-145.20;100.00
15294;BME280;7748;52.474;13.454;2023-03-20T09:18:26;58734.78;;;-145.20;100.00
15294;BME280;7748;52.474;13.454;2023-03-20T09:20:54;58734.78;;;-145.20;100.00
15294;BME280;7748;52.474;13.454;2023-03-20T09:23:24;58734.78;;;-145.20;100.00
15294;BME280;7748;52.474;13.454;2023-03-20T09:25:52;58734.78;;;-145.20;100.00
15294;BME280;7748;52.474;13.454;2023-03-20T09:28:20;58734.78;;;-145.20;100.00
15294;BME280;7748;52.474;13.454;2023-03-20T09:30:48;58734.78;;;-145.20;100.00
15294;BME280;7748;52.474;13.454;2023-03-20T09:33:17;58734.78;;;-145.20;100.00
15294;BME280;7748;52.474;13.454;2023-03-20T09:35:45;58734.78;;;-145.20;100.00
15294;BME280;7748;52.474;13.454;2023-03-20T09:38:13;58734.78;;;-145.20;100.00
15294;BME280;7748;52.474;13.454;2023-03-20T09:40:52;58734.78;;;-145.20;100.00
15294;BME280;7748;52.474;13.454;2023-03-20T09:43:43;58734.78;;;-145.20;100.00
15294;BME280;7748;52.474;13.454;2023-03-20T09:46:31;58734.78;;;-145.20;100.00
15294;BME280;7748;52.474;13.454;2023-03-20T09:49:08;58734.78;;;-145.20;100.00
15294;BME280;7748;52.474;13.454;2023-03-20T09:51:43;58734.78;;;-145.20;100.00
15294;BME280;7748;52.474;13.454;2023-03-20T09:54:18;58734.78;;;-145.20;100.00
15294;BME280;7748;52.474;13.454;2023-03-20T09:56:50;58734.78;;;-145.20;100.00
15294;BME280;7748;52.474;13.454;2023-03-20T09:59:20;58734.78;;;-145.20;100.00
15294;BME280;7748;52.474;13.454;2023-03-20T10:01:51;58734.78;;;-145.20;100.00
15294;BME280;7748;52.474;13.454;2023-03-20T10:04:20;58734.78;;;-145.20;100.00
15294;BME280;7748;52.474;13.454;2023-03-20T10:06:52;58734.78;;;-145.20;100.00
15294;BME280;7748;52.474;13.454;2023-03-20T10:09:21;58734.78;;;-145.20;100.00
15294;BME280;7748;52.474;13.454;2023-03-20T10:12:03;58734.78;;;-145.20;100.00
15294;BME280;7748;52.474;13.454;2023-03-20T10:14:47;58734.78;;;-145.20;100.00
15294;BME280;7748;52.474;13.454;2023-03-20T10:17:32;58734.78;;;-145.20;100.00
15294;BME280;7748;52.474;13.454;2023-03-20T10:20:10;58734.78;;;-145.20;100.00
15294;BME280;7748;52.474;13.454;2023-03-20T10:22:44;58734.78;;;-145.20;100.00
15294;BME280;7748;52.474;13.454;2023-03-20T10:25:27;58734.78;;;-145.20;100.00
15294;BME280;7748;52.474;13.454;2023-03-20T10:28:00;58734.78;;;-145.20;100.00
15294;BME280;7748;52.474;13.454;2023-03-20T10:30:43;58734.78;;;-145.20;100.00
15294;BME280;7748;52.474;13.454;2023-03-20T10:33:36;58734.78;;;-145.20;100.00
15294;BME280;7748;52.474;13.454;2023-03-20T10:36:21;58734.78;;;-145.20;100.00
15294;BME280;7748;52.474;13.454;2023-03-20T10:38:57;58734.78;;;-145.20;100.00
15294;BME280;7748;52.474;13.454;2023-03-20T10:41:32;58734.78;;;-145.20;100.00
15294;BME280;7748;52.474;13.454;2023-03-20T10:44:04;58734.78;;;-145.20;100.00
15294;BME280;7748;52.474;13.454;2023-03-20T10:46:37;58734.78;;;-145.20;100.00
15294;BME280;7748;52.474;13.454;2023-03-20T10:49:13;58734.78;;;-145.20;100.00
15294;BME280;7748;52.474;13.454;2023-03-20T10:51:47;58734.78;;;-145.20;100.00
15294;BME280;7748;52.474;13.454;2023-03-20T10:54:23;58734.78;;;-145.20;100.00
15294;BME280;7748;52.474;13.454;2023-03-20T10:56:55;58734.78;;;-145.20;100.00
15294;BME280;7748;52.474;13.454;2023-03-20T10:59:27;58734.78;;;-145.20;100.00
15294;BME280;7748;52.474;13.454;2023-03-20T11:01:56;58734.78;;;-145.20;100.00
15294;BME280;7748;52.474;13.454;2023-03-20T11:04:24;58734.78;;;-145.20;100.00
15294;BME280;7748;52.474;13.454;2023-03-20T11:06:58;58734.78;;;-145.20;100.00
15294;BME280;7748;52.474;13.454;2023-03-20T11:09:28;58734.78;;;-145.20;100.00
15294;BME280;7748;52.474;13.454;2023-03-20T11:12:01;58734.78;;;-145.20;100.00
15294;BME280;7748;52.474;13.454;2023-03-20T11:14:34;58734.78;;;-145.20;100.00
15294;BME280;7748;52.474;13.454;2023-03-20T11:17:04;58734.78;;;-145.20;100.00
15294;BME280;7748;52.474;13.454;2023-03-20T11:19:34;58734.78;;;-145.20;100.00
15294;BME280;7748;52.474;13.454;2023-03-20T11:22:07;58734.78;;;-145.20;100.00
15294;BME280;7748;52.474;13.454;2023-03-20T11:24:39;58734.78;;;-145.20;100.00
15294;BME280;7748;52.474;13.454;2023-03-20T11:27:10;58734.78;;;-145.20;100.00
15294;BME280;7748;52.474;13.454;2023-03-20T11:29:41;58734.78;;;-145.20;100.00
15294;BME280;7748;52.474;13.454;2023-03-20T11:32:20;58734.78;;;-145.20;100.00
15294;BME280;7748;52.474;13.454;2023-03-20T11:34:49;58734.78;;;-145.20;100.00
15294;BME280;7748;52.474;13.454;2023-03-20T11:37:23;58734.78;;;-145.20;100.00
15294;BME280;7748;52.474;13.454;2023-03-20T11:39:59;58734.78;;;-145.20;100.00
15294;BME280;7748;52.474;13.454;2023-03-20T11:42:29;58734.78;;;-145.20;100.00
15294;BME280;7748;52.474;13.454;2023-03-20T11:45:00;58734.78;;;-145.20;100.00
15294;BME280;7748;52.474;13.454;2023-03-20T11:47:32;58734.78;;;-145.20;100.00
15294;BME280;7748;52.474;13.454;2023-03-20T11:50:03;58734.78;;;-145.20;100.00
15294;BME280;7748;52.474;13.454;2023-03-20T11:52:34;58734.78;;;-145.20;100.00
15294;BME280;7748;52.474;13.454;2023-03-20T11:56:09;58734.78;;;-145.20;100.00
15294;BME280;7748;52.474;13.454;2023-03-20T11:58:17;58734.78;;;-145.20;100.00
15294;BME280;7748;52.474;13.454;2023-03-20T12:00:48;58734.78;;;-145.20;100.00
15294;BME280;7748;52.474;13.454;2023-03-20T12:03:42;58734.78;;;-145.20;100.00
15294;BME280;7748;52.474;13.454;2023-03-20T12:06:15;58734.78;;;-145.20;100.00
15294;BME280;7748;52.474;13.454;2023-03-20T12:08:49;58734.78;;;-145.20;100.00
15294;BME280;7748;52.474;13.454;2023-03-20T12:11:30;58734.78;;;-145.20;100.00
15294;BME280;7748;52.474;13.454;2023-03-20T12:14:31;58734.78;;;-145.20;100.00
15294;BME280;7748;52.474;13.454;2023-03-20T12:17:26;58734.78;;;-145.20;100.00
15294;BME280;7748;52.474;13.454;2023-03-20T12:20:02;58734.78;;;-145.20;100.00
15294;BME280;7748;52.474;13.454;2023-03-20T12:22:35;58734.78;;;-145.20;100.00
15294;BME280;7748;52.474;13.454;2023-03-20T12:25:15;58734.78;;;-145.20;100.00
15294;BME280;7748;52.474;13.454;2023-03-20T12:27:51;58734.78;;;-145.20;100.00
15294;BME280;7748;52.474;13.454;2023-03-20T12:30:28;58734.78;;;-145.20;100.00
15294;BME280;7748;52.474;13.454;2023-03-20T12:33:02;58734.78;;;-145.20;100.00
15294;BME280;7748;52.474;13.454;2023-03-20T12:35:33;58734.78;;;-145.20;100.00
15294;BME280;7748;52.474;13.454;2023-03-20T12:38:04;58734.78;;;-145.20;100.00
15294;BME280;7748;52.474;13.454;2023-03-20T12:40:44;58734.78;;;-145.20;100.00
15294;BME280;7748;52.474;13.454;2023-03-20T12:43:14;58734.78;;;-145.20;100.00
15294;BME280;7748;52.474;13.454;2023-03-20T12:45:50;58734.78;;;-145.20;100.00
15294;BME280;7748;52.474;13.454;2023-03-20T12:48:36;58734.78;;;-145.20;100.00
15294;BME280;7748;52.474;13.454;2023-03-20T12:51:12;58734.78;;;-145.20;100.00
15294;BME280;7748;52.474;13.454;2023-03-20T12:53:53;58734.78;;;-145.20;100.00
15294;BME280;7748;52.474;13.454;2023-03-20T12:56:30;58734.78;;;-145.20;100.00
15294;BME280;7748;52.474;13.454;2023-03-20T12:59:08;58734.78;;;-145.20;100.00
15294;BME280;7748;52.474;13.454;2023-03-20T13:01:45;58734.78;;;-145.20;100.00
15294;BME280;7748;52.474;13.454;2023-03-20T13:04:34;58734.78;;;-145.20;100.00
15294;BME280;7748;52.474;13.454;2023-03-20T13:07:17;58734.78;;;-145.20;100.00
15294;BME280;7748;52.474;13.454;2023-03-20T13:12:45;58734.78;;;-145.20;100.00
15294;BME280;7748;52.474;13.454;2023-03-20T13:15:33;58734.78;;;-145.20;100.00
15294;BME280;7748;52.474;13.454;2023-03-20T13:18:07;58734.78;;;-145.20;100.00
15294;BME280;7748;52.474;13.454;2023-03-20T13:20:45;58734.78;;;-145.20;100.00
15294;BME280;7748;52.474;13.454;2023-03-20T13:23:21;58734.78;;;-145.20;100.00